Relevés horaires Bierset (Belgique)


Relevés horaires à Bierset - Vendredi 22 Juin 2018
Heure UTC1 Température [°C] Vent [km/h] Hum. [%] Pres.4 [hPa] Visi. [Km] Nébu. [octa] Préc.5 [mm] Cond.
2m. Res. Ros. Dir.2 Vit. Moy. Raf.3
23:00 9.1 9.1 7.5 NO 3.7 3.7 7.4 90 1029.4(0.5/3h) 13 1/8 -- --
22:00 9.9 9.9 7.6 NO 3.7 3.7 7.4 86 1029.3(0.6/3h) 16 1/8 -- --
21:00 10.7 10.7 7.8 ONO 3.7 9.3 13.0 82 1029.1(0.6/3h) 20 2/8 -- --
20:00 11.6 11.4 7.8 NO 5.6 9.3 13.0 77 1028.7(0.5/3h) 25 2/8 -- --
19:00 13.3 12.7 7.6 NO 9.3 9.3 13.0 68 1028.4(0.4/3h) 30 4/8 -- --
18:00 14.4 14 7.3 NO 9.3 11.1 20.4 62 1028.1(-0.2/3h) 30 6/8 0/12h
--
17:00 14.5 13.9 7.6 ONO 11.1 11.1 20.4 63 1027.9(0.2/3h) 30 6/8 -- --
16:00 14.5 14.1 6.7 NO 9.3 9.3 14.8 59 1027.9(0.3/3h) 30 6/8 -- --
15:00 14.8 14.5 7.0 NO 9.3 11.1 18.5 60 1027.9(0.5/3h) 30 6/8 -- --
14:00 14.9 14.4 6.7 ONO 11.1 11.1 18.5 58 1027.7(0.5/3h) 30 6/8 -- --
13:00 15.4 15 5.9 NO 11.1 11.1 18.5 53 1027.5(0.5/3h) 30 6/8 -- --
12:00 14.5 14.1 5.4 NO 9.3 14.8 22.2 54 1027.5(0.4/3h) 30 6/8 0/6h
--
11:00 15.2 14.9 5.2 ONO 9.3 11.1 18.5 51 1027.2(0.4/3h) 30 6/8 -- --
10:00 15.7 15.3 4.0 NO 11.1 14.8 22.2 46 1027(0.3/3h) 30 4/8 -- --
09:00 14.9 14.1 3.3 NNO 13.0 13.0 22.2 46 1027(0.4/3h) 30 4/8 -- --
08:00 13.7 12.9 6.2 ONO 11.1 11.1 18.5 60 1026.8(0.3/3h) 30 3/8 -- --
07:00 12.4 11.9 6.5 ONO 7.4 9.3 14.8 67 1026.9(0.4/3h) 30 4/8 -- --
06:00 10.4 9.2 6.3 O 9.3 9.3 13.0 76 1026.9(0.3/3h) 30 1/8 0/12h
--
05:00 8.4 7.3 5.7 O 7.4 7.4 11.1 83 1026.9(-0.1/3h) 30 0/8 -- --
04:00 7.1 6.3 5.2 O 5.6 7.4 9.3 88 1026.9(-0.1/3h) 30 0/8 -- --
03:00 7.5 6.2 5.1 O 7.4 7.4 9.3 85 1026.8(-0.3/3h) 30 0/8 -- --
02:00 7.6 6.8 5.5 O 5.6 7.4 9.3 87 1026.9(-0.4/3h) 30 3/8 -- --
01:00 7.6 6.3 5.6 O 7.4 7.4 9.3 87 1027(-0.3/3h) 30 0/8 -- --
00:00 7.5 7.5 5.5 O 3.7 11.1 18.5 87 1027.1(0.0/3h) 30 0/8 0/6h
0.2/24h
--

1 Coordinated Universal Time. Actuellement il est 19:00 locale et 17:00 UTC.

2 Le vent souffle depuis la direction indiquée vers la direction oposée.

3 Les rafales max. sont disponible 40 min après l'heure du relevé.

4 Pour les stations d'altitude (plus de 600m) le géopotentiel du niveau le plus proche de la pression obligatoire est indiqué.

5 Les stations disposant d'un diffuseur peuvent indiquer "trace". Cela signifie que des précipitations ont touchés le sol mais que la quantité est inférieure à 0.1 mm.

Récapitulatif de la journée
Température [°C] Vent [km/h] Ensoleillement4 [h] Precipitations totale5 [mm] Pression [Hpa]
Min1 Max.2 Moy.3 Max. Min Max.
7.1 16.1 9.7 22.2 0 h 0 min 0 1026.8 1029.4

1 Température minimale relevée entre 18:00 UTC la veille et 18:00 UTC le jour donné.

2 Température maximale relevée entre 06:00 UTC le jour donné et 06:00 UTC le lendemain.

3 Vent moyen de la journée basé sur les relevés horaires.

4 Ensoleillement en heures relevé entre 06:00 UTC la veille et 06:00 UTC le jour donné.

5 Précipitations totales tombées entre 06:00 UTC la jour donné et 06:00 UTC le lendemain.

Graphiques horaires